sensor_id;sensor_type;location;lat;lon;timestamp;P1;durP1;ratioP1;P2;durP2;ratioP2
1276;SDS011;631;51.024;13.826;2023-07-31T00:01:28;12.07;;;11.37;;
1276;SDS011;631;51.024;13.826;2023-07-31T00:03:54;12.10;;;11.40;;
1276;SDS011;631;51.024;13.826;2023-07-31T00:06:20;12.93;;;12.13;;
1276;SDS011;631;51.024;13.826;2023-07-31T00:08:45;12.43;;;11.73;;
1276;SDS011;631;51.024;13.826;2023-07-31T00:11:11;12.20;;;11.50;;
1276;SDS011;631;51.024;13.826;2023-07-31T00:13:36;12.87;;;12.07;;
1276;SDS011;631;51.024;13.826;2023-07-31T00:16:02;12.30;;;11.60;;
1276;SDS011;631;51.024;13.826;2023-07-31T00:18:27;11.40;;;10.80;;
1276;SDS011;631;51.024;13.826;2023-07-31T00:20:53;13.17;;;12.37;;
1276;SDS011;631;51.024;13.826;2023-07-31T00:23:19;12.40;;;11.70;;
1276;SDS011;631;51.024;13.826;2023-07-31T00:25:44;12.23;;;11.57;;
1276;SDS011;631;51.024;13.826;2023-07-31T00:28:10;12.53;;;11.83;;
1276;SDS011;631;51.024;13.826;2023-07-31T00:30:35;12.27;;;11.57;;
1276;SDS011;631;51.024;13.826;2023-07-31T00:33:01;11.83;;;11.20;;
1276;SDS011;631;51.024;13.826;2023-07-31T00:35:26;13.37;;;12.47;;
1276;SDS011;631;51.024;13.826;2023-07-31T00:37:52;12.90;;;12.10;;
1276;SDS011;631;51.024;13.826;2023-07-31T00:40:18;12.63;;;11.90;;
1276;SDS011;631;51.024;13.826;2023-07-31T00:42:43;13.07;;;12.07;;
1276;SDS011;631;51.024;13.826;2023-07-31T00:45:09;12.40;;;11.70;;
1276;SDS011;631;51.024;13.826;2023-07-31T00:47:34;12.20;;;11.50;;
1276;SDS011;631;51.024;13.826;2023-07-31T00:50:00;12.10;;;11.40;;
1276;SDS011;631;51.024;13.826;2023-07-31T00:52:26;12.30;;;11.60;;
1276;SDS011;631;51.024;13.826;2023-07-31T00:54:51;12.27;;;11.57;;
1276;SDS011;631;51.024;13.826;2023-07-31T00:57:17;13.00;;;11.90;;
1276;SDS011;631;51.024;13.826;2023-07-31T00:59:43;12.27;;;11.57;;
1276;SDS011;631;51.024;13.826;2023-07-31T01:02:08;11.60;;;10.80;;
1276;SDS011;631;51.024;13.826;2023-07-31T01:04:34;12.00;;;11.30;;
1276;SDS011;631;51.024;13.826;2023-07-31T01:07:21;12.10;;;11.40;;
1276;SDS011;631;51.024;13.826;2023-07-31T01:09:58;12.03;;;11.30;;
1276;SDS011;631;51.024;13.826;2023-07-31T01:12:35;12.80;;;11.90;;
1276;SDS011;631;51.024;13.826;2023-07-31T01:15:06;12.53;;;11.73;;
1276;SDS011;631;51.024;13.826;2023-07-31T01:17:36;11.93;;;11.30;;
1276;SDS011;631;51.024;13.826;2023-07-31T01:20:03;12.10;;;11.20;;
1276;SDS011;631;51.024;13.826;2023-07-31T01:25:43;11.23;;;10.53;;
1276;SDS011;631;51.024;13.826;2023-07-31T01:28:14;11.60;;;11.10;;
1276;SDS011;631;51.024;13.826;2023-07-31T01:31:00;11.77;;;11.17;;
1276;SDS011;631;51.024;13.826;2023-07-31T01:33:28;11.90;;;11.30;;
1276;SDS011;631;51.024;13.826;2023-07-31T01:35:53;12.10;;;11.40;;
1276;SDS011;631;51.024;13.826;2023-07-31T01:38:21;12.00;;;11.30;;
1276;SDS011;631;51.024;13.826;2023-07-31T01:40:50;11.63;;;10.93;;
1276;SDS011;631;51.024;13.826;2023-07-31T01:43:17;12.07;;;11.37;;
1276;SDS011;631;51.024;13.826;2023-07-31T01:45:43;12.03;;;11.33;;
1276;SDS011;631;51.024;13.826;2023-07-31T01:48:08;11.90;;;11.30;;
1276;SDS011;631;51.024;13.826;2023-07-31T01:50:34;11.60;;;10.90;;
1276;SDS011;631;51.024;13.826;2023-07-31T01:53:00;11.37;;;10.77;;
1276;SDS011;631;51.024;13.826;2023-07-31T01:55:26;12.10;;;11.40;;
1276;SDS011;631;51.024;13.826;2023-07-31T01:57:51;12.13;;;11.30;;
1276;SDS011;631;51.024;13.826;2023-07-31T02:00:17;11.50;;;10.80;;
1276;SDS011;631;51.024;13.826;2023-07-31T02:02:43;11.90;;;11.00;;
1276;SDS011;631;51.024;13.826;2023-07-31T02:05:09;11.20;;;10.43;;
1276;SDS011;631;51.024;13.826;2023-07-31T02:07:34;12.07;;;11.27;;
1276;SDS011;631;51.024;13.826;2023-07-31T02:10:00;11.80;;;11.13;;
1276;SDS011;631;51.024;13.826;2023-07-31T02:12:26;11.87;;;11.23;;
1276;SDS011;631;51.024;13.826;2023-07-31T02:14:51;11.27;;;10.67;;
1276;SDS011;631;51.024;13.826;2023-07-31T02:17:17;11.40;;;10.80;;
1276;SDS011;631;51.024;13.826;2023-07-31T02:19:42;11.50;;;10.90;;
1276;SDS011;631;51.024;13.826;2023-07-31T02:22:08;11.37;;;10.73;;
1276;SDS011;631;51.024;13.826;2023-07-31T02:24:33;11.43;;;10.70;;
1276;SDS011;631;51.024;13.826;2023-07-31T02:26:59;11.23;;;10.73;;
1276;SDS011;631;51.024;13.826;2023-07-31T02:29:25;11.97;;;11.00;;
1276;SDS011;631;51.024;13.826;2023-07-31T02:31:50;11.23;;;10.63;;
1276;SDS011;631;51.024;13.826;2023-07-31T02:34:16;11.70;;;11.10;;
1276;SDS011;631;51.024;13.826;2023-07-31T02:36:41;11.73;;;11.03;;
1276;SDS011;631;51.024;13.826;2023-07-31T02:39:07;11.20;;;10.60;;
1276;SDS011;631;51.024;13.826;2023-07-31T02:41:32;11.70;;;11.10;;
1276;SDS011;631;51.024;13.826;2023-07-31T02:43:58;11.70;;;10.90;;
1276;SDS011;631;51.024;13.826;2023-07-31T02:46:24;11.70;;;11.10;;
1276;SDS011;631;51.024;13.826;2023-07-31T02:48:50;11.17;;;10.57;;
1276;SDS011;631;51.024;13.826;2023-07-31T02:51:16;11.00;;;10.40;;
1276;SDS011;631;51.024;13.826;2023-07-31T02:53:42;11.60;;;11.10;;
1276;SDS011;631;51.024;13.826;2023-07-31T02:56:07;11.20;;;10.70;;
1276;SDS011;631;51.024;13.826;2023-07-31T02:58:33;11.30;;;10.63;;
1276;SDS011;631;51.024;13.826;2023-07-31T03:00:58;11.77;;;11.20;;
1276;SDS011;631;51.024;13.826;2023-07-31T03:03:24;12.13;;;11.20;;
1276;SDS011;631;51.024;13.826;2023-07-31T03:05:50;11.33;;;10.73;;
1276;SDS011;631;51.024;13.826;2023-07-31T03:08:15;11.10;;;10.50;;
1276;SDS011;631;51.024;13.826;2023-07-31T03:10:41;10.83;;;10.13;;
1276;SDS011;631;51.024;13.826;2023-07-31T03:13:07;11.60;;;10.80;;
1276;SDS011;631;51.024;13.826;2023-07-31T03:15:32;11.07;;;10.47;;
1276;SDS011;631;51.024;13.826;2023-07-31T03:17:58;11.00;;;10.40;;
1276;SDS011;631;51.024;13.826;2023-07-31T03:20:23;11.83;;;11.13;;
1276;SDS011;631;51.024;13.826;2023-07-31T03:22:49;11.53;;;10.83;;
1276;SDS011;631;51.024;13.826;2023-07-31T03:25:15;11.47;;;10.97;;
1276;SDS011;631;51.024;13.826;2023-07-31T03:27:40;10.90;;;10.20;;
1276;SDS011;631;51.024;13.826;2023-07-31T03:30:06;11.50;;;11.00;;
1276;SDS011;631;51.024;13.826;2023-07-31T03:32:32;10.80;;;10.10;;
1276;SDS011;631;51.024;13.826;2023-07-31T03:34:58;11.77;;;10.97;;
1276;SDS011;631;51.024;13.826;2023-07-31T03:37:23;11.40;;;10.80;;
1276;SDS011;631;51.024;13.826;2023-07-31T03:39:49;11.13;;;10.50;;
1276;SDS011;631;51.024;13.826;2023-07-31T03:42:15;11.47;;;10.73;;
1276;SDS011;631;51.024;13.826;2023-07-31T03:44:40;11.70;;;11.03;;
1276;SDS011;631;51.024;13.826;2023-07-31T03:47:06;12.83;;;12.13;;
1276;SDS011;631;51.024;13.826;2023-07-31T03:49:31;11.70;;;11.00;;
1276;SDS011;631;51.024;13.826;2023-07-31T03:51:57;11.60;;;11.00;;
1276;SDS011;631;51.024;13.826;2023-07-31T03:54:22;10.90;;;10.40;;
1276;SDS011;631;51.024;13.826;2023-07-31T03:56:48;11.23;;;10.30;;
1276;SDS011;631;51.024;13.826;2023-07-31T03:59:14;11.07;;;10.57;;
1276;SDS011;631;51.024;13.826;2023-07-31T04:01:39;11.00;;;10.50;;
1276;SDS011;631;51.024;13.826;2023-07-31T04:04:05;10.83;;;10.13;;
1276;SDS011;631;51.024;13.826;2023-07-31T04:06:30;11.10;;;10.50;;
1276;SDS011;631;51.024;13.826;2023-07-31T04:08:56;11.10;;;10.40;;
1276;SDS011;631;51.024;13.826;2023-07-31T04:11:22;11.63;;;10.83;;
1276;SDS011;631;51.024;13.826;2023-07-31T04:13:47;11.03;;;10.40;;
1276;SDS011;631;51.024;13.826;2023-07-31T04:16:13;11.47;;;10.77;;
1276;SDS011;631;51.024;13.826;2023-07-31T04:18:39;11.33;;;10.73;;
1276;SDS011;631;51.024;13.826;2023-07-31T04:21:04;10.97;;;10.37;;
1276;SDS011;631;51.024;13.826;2023-07-31T04:23:30;11.70;;;10.97;;
1276;SDS011;631;51.024;13.826;2023-07-31T04:25:56;11.67;;;10.97;;
1276;SDS011;631;51.024;13.826;2023-07-31T04:28:21;11.40;;;10.80;;
1276;SDS011;631;51.024;13.826;2023-07-31T04:30:47;13.03;;;12.27;;
1276;SDS011;631;51.024;13.826;2023-07-31T04:33:12;12.50;;;11.80;;
1276;SDS011;631;51.024;13.826;2023-07-31T04:35:38;12.53;;;11.70;;
1276;SDS011;631;51.024;13.826;2023-07-31T04:38:04;13.10;;;12.30;;
1276;SDS011;631;51.024;13.826;2023-07-31T04:40:29;13.37;;;12.57;;
1276;SDS011;631;51.024;13.826;2023-07-31T04:42:55;13.00;;;12.30;;
1276;SDS011;631;51.024;13.826;2023-07-31T04:45:21;13.00;;;12.30;;
1276;SDS011;631;51.024;13.826;2023-07-31T04:47:47;13.23;;;12.30;;
1276;SDS011;631;51.024;13.826;2023-07-31T04:50:12;13.10;;;12.20;;
1276;SDS011;631;51.024;13.826;2023-07-31T04:52:38;12.97;;;12.17;;
1276;SDS011;631;51.024;13.826;2023-07-31T04:55:03;13.73;;;12.80;;
1276;SDS011;631;51.024;13.826;2023-07-31T04:57:29;13.97;;;13.17;;
1276;SDS011;631;51.024;13.826;2023-07-31T04:59:55;13.90;;;13.10;;
1276;SDS011;631;51.024;13.826;2023-07-31T05:02:20;13.77;;;12.70;;
1276;SDS011;631;51.024;13.826;2023-07-31T05:04:46;13.97;;;12.97;;
1276;SDS011;631;51.024;13.826;2023-07-31T05:07:13;13.70;;;12.73;;
1276;SDS011;631;51.024;13.826;2023-07-31T05:09:38;14.13;;;13.17;;
1276;SDS011;631;51.024;13.826;2023-07-31T05:12:04;13.40;;;12.50;;
1276;SDS011;631;51.024;13.826;2023-07-31T05:14:31;14.20;;;13.40;;
1276;SDS011;631;51.024;13.826;2023-07-31T05:16:56;13.90;;;13.07;;
1276;SDS011;631;51.024;13.826;2023-07-31T05:19:22;12.33;;;11.70;;
1276;SDS011;631;51.024;13.826;2023-07-31T05:21:47;13.50;;;12.80;;
1276;SDS011;631;51.024;13.826;2023-07-31T05:24:13;12.67;;;11.97;;
1276;SDS011;631;51.024;13.826;2023-07-31T05:26:39;12.87;;;12.00;;
1276;SDS011;631;51.024;13.826;2023-07-31T05:29:04;13.80;;;12.83;;
1276;SDS011;631;51.024;13.826;2023-07-31T05:31:30;13.30;;;12.40;;
1276;SDS011;631;51.024;13.826;2023-07-31T05:33:57;12.87;;;12.17;;
1276;SDS011;631;51.024;13.826;2023-07-31T05:36:23;14.23;;;13.27;;
1276;SDS011;631;51.024;13.826;2023-07-31T05:38:48;12.40;;;11.80;;
1276;SDS011;631;51.024;13.826;2023-07-31T05:41:14;16.00;;;14.97;;
1276;SDS011;631;51.024;13.826;2023-07-31T05:43:40;14.00;;;13.00;;
1276;SDS011;631;51.024;13.826;2023-07-31T05:46:06;13.63;;;12.53;;
1276;SDS011;631;51.024;13.826;2023-07-31T05:48:32;13.30;;;12.53;;
1276;SDS011;631;51.024;13.826;2023-07-31T05:50:59;13.17;;;12.37;;
1276;SDS011;631;51.024;13.826;2023-07-31T05:53:24;12.67;;;11.97;;
1276;SDS011;631;51.024;13.826;2023-07-31T05:55:50;13.67;;;12.87;;
1276;SDS011;631;51.024;13.826;2023-07-31T05:58:16;12.80;;;12.13;;
1276;SDS011;631;51.024;13.826;2023-07-31T06:00:41;12.80;;;12.10;;
1276;SDS011;631;51.024;13.826;2023-07-31T06:03:07;14.13;;;13.20;;
1276;SDS011;631;51.024;13.826;2023-07-31T06:05:32;11.80;;;11.13;;
1276;SDS011;631;51.024;13.826;2023-07-31T06:07:58;11.63;;;10.93;;
1276;SDS011;631;51.024;13.826;2023-07-31T06:10:24;11.60;;;11.00;;
1276;SDS011;631;51.024;13.826;2023-07-31T06:12:49;11.53;;;10.83;;
1276;SDS011;631;51.024;13.826;2023-07-31T06:15:15;12.40;;;11.40;;
1276;SDS011;631;51.024;13.826;2023-07-31T06:17:40;11.90;;;11.20;;
1276;SDS011;631;51.024;13.826;2023-07-31T06:20:07;12.53;;;11.73;;
1276;SDS011;631;51.024;13.826;2023-07-31T06:22:33;11.70;;;11.10;;
1276;SDS011;631;51.024;13.826;2023-07-31T06:24:59;12.30;;;11.57;;
1276;SDS011;631;51.024;13.826;2023-07-31T06:27:24;11.97;;;11.17;;
1276;SDS011;631;51.024;13.826;2023-07-31T06:29:51;11.30;;;10.70;;
1276;SDS011;631;51.024;13.826;2023-07-31T06:32:17;11.60;;;10.90;;
1276;SDS011;631;51.024;13.826;2023-07-31T06:34:43;11.50;;;10.80;;
1276;SDS011;631;51.024;13.826;2023-07-31T06:37:08;11.40;;;10.80;;
1276;SDS011;631;51.024;13.826;2023-07-31T06:39:34;11.50;;;10.90;;
1276;SDS011;631;51.024;13.826;2023-07-31T06:42:00;11.90;;;11.30;;
1276;SDS011;631;51.024;13.826;2023-07-31T06:44:25;12.27;;;11.47;;
1276;SDS011;631;51.024;13.826;2023-07-31T06:46:51;10.40;;;9.90;;
1276;SDS011;631;51.024;13.826;2023-07-31T06:49:16;11.50;;;10.80;;
1276;SDS011;631;51.024;13.826;2023-07-31T06:51:42;11.50;;;10.80;;
1276;SDS011;631;51.024;13.826;2023-07-31T06:54:09;11.77;;;10.87;;
1276;SDS011;631;51.024;13.826;2023-07-31T06:56:34;11.10;;;10.40;;
1276;SDS011;631;51.024;13.826;2023-07-31T06:59:00;11.57;;;10.93;;
1276;SDS011;631;51.024;13.826;2023-07-31T07:01:26;11.40;;;10.60;;
1276;SDS011;631;51.024;13.826;2023-07-31T07:03:52;10.17;;;9.57;;
1276;SDS011;631;51.024;13.826;2023-07-31T07:06:18;10.43;;;9.83;;
1276;SDS011;631;51.024;13.826;2023-07-31T07:08:44;10.90;;;10.40;;
1276;SDS011;631;51.024;13.826;2023-07-31T07:11:10;11.77;;;11.10;;
1276;SDS011;631;51.024;13.826;2023-07-31T07:13:35;12.83;;;11.93;;
1276;SDS011;631;51.024;13.826;2023-07-31T07:16:01;10.90;;;10.30;;
1276;SDS011;631;51.024;13.826;2023-07-31T07:18:27;11.13;;;10.53;;
1276;SDS011;631;51.024;13.826;2023-07-31T07:20:53;11.97;;;11.07;;
1276;SDS011;631;51.024;13.826;2023-07-31T07:23:19;11.53;;;10.93;;
1276;SDS011;631;51.024;13.826;2023-07-31T07:25:45;11.27;;;10.57;;
1276;SDS011;631;51.024;13.826;2023-07-31T07:28:12;11.07;;;10.47;;
1276;SDS011;631;51.024;13.826;2023-07-31T07:30:38;11.13;;;10.33;;
1276;SDS011;631;51.024;13.826;2023-07-31T07:33:04;11.30;;;10.70;;
1276;SDS011;631;51.024;13.826;2023-07-31T07:35:30;11.40;;;10.80;;
1276;SDS011;631;51.024;13.826;2023-07-31T07:37:58;10.47;;;9.90;;
1276;SDS011;631;51.024;13.826;2023-07-31T07:40:23;10.70;;;10.10;;
1276;SDS011;631;51.024;13.826;2023-07-31T07:42:49;11.57;;;10.97;;
1276;SDS011;631;51.024;13.826;2023-07-31T07:45:15;11.33;;;10.73;;
1276;SDS011;631;51.024;13.826;2023-07-31T07:47:41;11.40;;;10.70;;
1276;SDS011;631;51.024;13.826;2023-07-31T07:50:07;11.13;;;10.40;;
1276;SDS011;631;51.024;13.826;2023-07-31T07:52:33;11.10;;;10.50;;
1276;SDS011;631;51.024;13.826;2023-07-31T07:54:59;11.43;;;10.63;;
1276;SDS011;631;51.024;13.826;2023-07-31T07:57:25;11.03;;;10.40;;
1276;SDS011;631;51.024;13.826;2023-07-31T07:59:51;11.27;;;10.47;;
1276;SDS011;631;51.024;13.826;2023-07-31T08:02:16;12.33;;;11.63;;
1276;SDS011;631;51.024;13.826;2023-07-31T08:04:42;11.47;;;10.87;;
1276;SDS011;631;51.024;13.826;2023-07-31T08:07:10;11.10;;;10.50;;
1276;SDS011;631;51.024;13.826;2023-07-31T08:09:37;11.77;;;11.07;;
1276;SDS011;631;51.024;13.826;2023-07-31T08:12:03;11.73;;;10.93;;
1276;SDS011;631;51.024;13.826;2023-07-31T08:14:29;11.43;;;10.67;;
1276;SDS011;631;51.024;13.826;2023-07-31T08:16:55;11.00;;;10.50;;
1276;SDS011;631;51.024;13.826;2023-07-31T08:19:20;11.43;;;10.83;;
1276;SDS011;631;51.024;13.826;2023-07-31T08:21:46;11.10;;;10.40;;
1276;SDS011;631;51.024;13.826;2023-07-31T08:24:12;11.17;;;10.50;;
1276;SDS011;631;51.024;13.826;2023-07-31T08:26:37;11.27;;;10.67;;
1276;SDS011;631;51.024;13.826;2023-07-31T08:29:03;10.73;;;10.23;;
1276;SDS011;631;51.024;13.826;2023-07-31T08:31:29;11.67;;;10.97;;
1276;SDS011;631;51.024;13.826;2023-07-31T08:33:55;11.30;;;10.60;;
1276;SDS011;631;51.024;13.826;2023-07-31T08:36:21;11.70;;;11.00;;
1276;SDS011;631;51.024;13.826;2023-07-31T08:38:47;11.60;;;11.00;;
1276;SDS011;631;51.024;13.826;2023-07-31T08:41:13;12.00;;;11.20;;
1276;SDS011;631;51.024;13.826;2023-07-31T08:43:38;11.00;;;10.50;;
1276;SDS011;631;51.024;13.826;2023-07-31T08:46:04;11.13;;;10.43;;
1276;SDS011;631;51.024;13.826;2023-07-31T08:48:31;12.37;;;11.57;;
1276;SDS011;631;51.024;13.826;2023-07-31T08:50:58;11.80;;;11.20;;
1276;SDS011;631;51.024;13.826;2023-07-31T08:53:24;11.90;;;11.30;;
1276;SDS011;631;51.024;13.826;2023-07-31T08:55:49;12.30;;;11.70;;
1276;SDS011;631;51.024;13.826;2023-07-31T08:58:18;12.63;;;11.67;;
1276;SDS011;631;51.024;13.826;2023-07-31T09:00:46;12.20;;;11.60;;
1276;SDS011;631;51.024;13.826;2023-07-31T09:03:16;11.80;;;11.20;;
1276;SDS011;631;51.024;13.826;2023-07-31T09:05:43;12.20;;;11.60;;
1276;SDS011;631;51.024;13.826;2023-07-31T09:08:11;11.87;;;11.27;;
1276;SDS011;631;51.024;13.826;2023-07-31T09:10:42;11.30;;;10.80;;
1276;SDS011;631;51.024;13.826;2023-07-31T09:13:10;11.40;;;10.80;;
1276;SDS011;631;51.024;13.826;2023-07-31T09:15:36;12.20;;;11.40;;
1276;SDS011;631;51.024;13.826;2023-07-31T09:18:03;11.20;;;10.60;;
1276;SDS011;631;51.024;13.826;2023-07-31T09:20:30;11.10;;;10.50;;
1276;SDS011;631;51.024;13.826;2023-07-31T09:23:06;11.37;;;10.77;;
1276;SDS011;631;51.024;13.826;2023-07-31T09:25:36;12.23;;;11.50;;
1276;SDS011;631;51.024;13.826;2023-07-31T09:28:04;11.87;;;11.10;;
1276;SDS011;631;51.024;13.826;2023-07-31T09:30:32;11.90;;;11.20;;
1276;SDS011;631;51.024;13.826;2023-07-31T09:33:12;12.10;;;11.40;;
1276;SDS011;631;51.024;13.826;2023-07-31T09:35:38;12.50;;;11.70;;
1276;SDS011;631;51.024;13.826;2023-07-31T09:38:06;11.77;;;11.07;;
1276;SDS011;631;51.024;13.826;2023-07-31T09:40:37;11.23;;;10.60;;
1276;SDS011;631;51.024;13.826;2023-07-31T09:43:05;12.37;;;11.67;;
1276;SDS011;631;51.024;13.826;2023-07-31T09:45:36;10.70;;;10.10;;
1276;SDS011;631;51.024;13.826;2023-07-31T09:48:03;11.57;;;10.87;;
1276;SDS011;631;51.024;13.826;2023-07-31T09:50:40;13.10;;;12.20;;
1276;SDS011;631;51.024;13.826;2023-07-31T09:53:07;12.30;;;11.60;;
1276;SDS011;631;51.024;13.826;2023-07-31T09:55:33;11.50;;;10.70;;
1276;SDS011;631;51.024;13.826;2023-07-31T09:58:00;11.30;;;10.70;;
1276;SDS011;631;51.024;13.826;2023-07-31T10:00:29;10.87;;;10.27;;
1276;SDS011;631;51.024;13.826;2023-07-31T10:02:57;11.80;;;11.20;;
1276;SDS011;631;51.024;13.826;2023-07-31T10:05:24;11.80;;;11.00;;
1276;SDS011;631;51.024;13.826;2023-07-31T10:07:56;11.20;;;10.60;;
1276;SDS011;631;51.024;13.826;2023-07-31T10:10:23;11.83;;;11.17;;
1276;SDS011;631;51.024;13.826;2023-07-31T10:12:50;11.73;;;11.00;;
1276;SDS011;631;51.024;13.826;2023-07-31T10:15:18;11.50;;;10.90;;
1276;SDS011;631;51.024;13.826;2023-07-31T10:17:44;11.17;;;10.57;;
1276;SDS011;631;51.024;13.826;2023-07-31T10:20:12;11.70;;;11.10;;
1276;SDS011;631;51.024;13.826;2023-07-31T10:22:39;11.53;;;10.93;;
1276;SDS011;631;51.024;13.826;2023-07-31T10:25:05;11.67;;;11.07;;
1276;SDS011;631;51.024;13.826;2023-07-31T10:27:34;11.80;;;11.10;;
1276;SDS011;631;51.024;13.826;2023-07-31T10:30:01;10.73;;;10.13;;
1276;SDS011;631;51.024;13.826;2023-07-31T10:32:34;11.13;;;10.53;;
1276;SDS011;631;51.024;13.826;2023-07-31T10:35:01;12.20;;;11.57;;
1276;SDS011;631;51.024;13.826;2023-07-31T10:37:29;12.50;;;11.80;;
1276;SDS011;631;51.024;13.826;2023-07-31T10:40:03;12.27;;;11.47;;
1276;SDS011;631;51.024;13.826;2023-07-31T10:42:30;12.43;;;11.50;;
1276;SDS011;631;51.024;13.826;2023-07-31T10:45:02;10.60;;;10.10;;
1276;SDS011;631;51.024;13.826;2023-07-31T10:47:29;11.57;;;10.97;;
1276;SDS011;631;51.024;13.826;2023-07-31T10:52:49;12.53;;;11.73;;
1276;SDS011;631;51.024;13.826;2023-07-31T10:55:41;11.63;;;11.03;;
1276;SDS011;631;51.024;13.826;2023-07-31T10:58:09;11.13;;;10.63;;
1276;SDS011;631;51.024;13.826;2023-07-31T11:00:40;11.00;;;10.50;;
1276;SDS011;631;51.024;13.826;2023-07-31T11:03:08;12.03;;;11.23;;
1276;SDS011;631;51.024;13.826;2023-07-31T11:05:40;11.60;;;11.00;;
1276;SDS011;631;51.024;13.826;2023-07-31T11:08:23;11.70;;;11.10;;
1276;SDS011;631;51.024;13.826;2023-07-31T11:16:06;11.00;;;10.40;;
1276;SDS011;631;51.024;13.826;2023-07-31T11:18:32;11.40;;;10.80;;
1276;SDS011;631;51.024;13.826;2023-07-31T11:20:58;12.97;;;12.27;;
1276;SDS011;631;51.024;13.826;2023-07-31T11:23:23;11.77;;;11.17;;
1276;SDS011;631;51.024;13.826;2023-07-31T11:25:50;11.00;;;10.47;;
1276;SDS011;631;51.024;13.826;2023-07-31T11:28:17;10.80;;;10.30;;
1276;SDS011;631;51.024;13.826;2023-07-31T11:30:44;11.70;;;10.90;;
1276;SDS011;631;51.024;13.826;2023-07-31T11:33:12;11.73;;;11.23;;
1276;SDS011;631;51.024;13.826;2023-07-31T11:35:45;12.93;;;11.90;;
1276;SDS011;631;51.024;13.826;2023-07-31T11:38:20;11.97;;;11.37;;
1276;SDS011;631;51.024;13.826;2023-07-31T11:40:49;10.70;;;10.20;;
1276;SDS011;631;51.024;13.826;2023-07-31T11:43:15;12.00;;;11.30;;
1276;SDS011;631;51.024;13.826;2023-07-31T11:45:44;10.97;;;10.37;;
1276;SDS011;631;51.024;13.826;2023-07-31T11:48:20;11.10;;;10.50;;
1276;SDS011;631;51.024;13.826;2023-07-31T11:50:51;10.83;;;10.33;;
1276;SDS011;631;51.024;13.826;2023-07-31T11:53:20;11.50;;;10.90;;
1276;SDS011;631;51.024;13.826;2023-07-31T11:55:51;10.93;;;10.33;;
1276;SDS011;631;51.024;13.826;2023-07-31T11:58:17;11.70;;;11.10;;
1276;SDS011;631;51.024;13.826;2023-07-31T12:00:44;10.50;;;10.00;;
1276;SDS011;631;51.024;13.826;2023-07-31T12:03:13;10.83;;;10.27;;
1276;SDS011;631;51.024;13.826;2023-07-31T12:05:39;10.70;;;10.20;;
1276;SDS011;631;51.024;13.826;2023-07-31T12:08:09;11.63;;;11.03;;
1276;SDS011;631;51.024;13.826;2023-07-31T12:10:36;11.40;;;10.80;;
1276;SDS011;631;51.024;13.826;2023-07-31T12:15:40;10.47;;;9.87;;
1276;SDS011;631;51.024;13.826;2023-07-31T12:18:07;10.73;;;10.23;;
1276;SDS011;631;51.024;13.826;2023-07-31T12:20:44;11.33;;;10.83;;
1276;SDS011;631;51.024;13.826;2023-07-31T12:23:12;10.80;;;10.30;;
1276;SDS011;631;51.024;13.826;2023-07-31T12:25:40;10.63;;;10.03;;
1276;SDS011;631;51.024;13.826;2023-07-31T12:28:07;10.90;;;10.40;;
1276;SDS011;631;51.024;13.826;2023-07-31T12:30:37;10.63;;;10.13;;
1276;SDS011;631;51.024;13.826;2023-07-31T12:33:04;10.27;;;9.77;;
1276;SDS011;631;51.024;13.826;2023-07-31T12:35:38;10.40;;;9.90;;
1276;SDS011;631;51.024;13.826;2023-07-31T12:38:09;11.23;;;10.60;;
1276;SDS011;631;51.024;13.826;2023-07-31T12:40:38;10.63;;;10.03;;
1276;SDS011;631;51.024;13.826;2023-07-31T12:43:05;10.30;;;9.70;;
1276;SDS011;631;51.024;13.826;2023-07-31T12:45:32;10.47;;;9.97;;
1276;SDS011;631;51.024;13.826;2023-07-31T12:47:58;11.13;;;10.53;;
1276;SDS011;631;51.024;13.826;2023-07-31T12:50:24;10.27;;;9.77;;
1276;SDS011;631;51.024;13.826;2023-07-31T12:52:50;10.50;;;10.00;;
1276;SDS011;631;51.024;13.826;2023-07-31T12:55:17;11.63;;;11.03;;
1276;SDS011;631;51.024;13.826;2023-07-31T12:57:43;11.23;;;10.63;;
1276;SDS011;631;51.024;13.826;2023-07-31T13:00:09;10.90;;;10.30;;
1276;SDS011;631;51.024;13.826;2023-07-31T13:02:36;10.93;;;10.37;;
1276;SDS011;631;51.024;13.826;2023-07-31T13:05:01;11.67;;;11.17;;
1276;SDS011;631;51.024;13.826;2023-07-31T13:07:27;11.43;;;10.93;;
1276;SDS011;631;51.024;13.826;2023-07-31T13:09:53;10.27;;;9.77;;
1276;SDS011;631;51.024;13.826;2023-07-31T13:12:18;11.20;;;10.60;;
1276;SDS011;631;51.024;13.826;2023-07-31T13:14:44;10.63;;;10.10;;
1276;SDS011;631;51.024;13.826;2023-07-31T13:17:10;10.23;;;9.83;;
1276;SDS011;631;51.024;13.826;2023-07-31T13:19:35;9.60;;;9.10;;
1276;SDS011;631;51.024;13.826;2023-07-31T13:22:01;11.43;;;10.93;;
1276;SDS011;631;51.024;13.826;2023-07-31T13:24:26;10.37;;;9.87;;
1276;SDS011;631;51.024;13.826;2023-07-31T13:26:53;12.00;;;11.20;;
1276;SDS011;631;51.024;13.826;2023-07-31T13:29:18;11.97;;;11.37;;
1276;SDS011;631;51.024;13.826;2023-07-31T13:31:44;10.60;;;10.10;;
1276;SDS011;631;51.024;13.826;2023-07-31T13:34:10;11.23;;;10.63;;
1276;SDS011;631;51.024;13.826;2023-07-31T13:36:35;10.90;;;10.40;;
1276;SDS011;631;51.024;13.826;2023-07-31T13:39:02;10.67;;;10.07;;
1276;SDS011;631;51.024;13.826;2023-07-31T13:41:28;11.10;;;10.60;;
1276;SDS011;631;51.024;13.826;2023-07-31T13:43:53;12.00;;;11.30;;
1276;SDS011;631;51.024;13.826;2023-07-31T13:46:19;11.37;;;10.77;;
1276;SDS011;631;51.024;13.826;2023-07-31T13:48:44;11.10;;;10.50;;
1276;SDS011;631;51.024;13.826;2023-07-31T13:51:10;12.03;;;11.43;;
1276;SDS011;631;51.024;13.826;2023-07-31T13:53:36;11.20;;;10.67;;
1276;SDS011;631;51.024;13.826;2023-07-31T13:56:01;10.60;;;10.10;;
1276;SDS011;631;51.024;13.826;2023-07-31T13:58:27;10.67;;;10.17;;
1276;SDS011;631;51.024;13.826;2023-07-31T14:00:53;10.70;;;10.20;;
1276;SDS011;631;51.024;13.826;2023-07-31T14:03:18;10.90;;;10.40;;
1276;SDS011;631;51.024;13.826;2023-07-31T14:05:44;11.70;;;11.00;;
1276;SDS011;631;51.024;13.826;2023-07-31T14:08:09;11.60;;;11.00;;
1276;SDS011;631;51.024;13.826;2023-07-31T14:10:35;11.27;;;10.67;;
1276;SDS011;631;51.024;13.826;2023-07-31T14:13:01;10.80;;;10.30;;
1276;SDS011;631;51.024;13.826;2023-07-31T14:15:26;11.40;;;10.80;;
1276;SDS011;631;51.024;13.826;2023-07-31T14:17:52;10.30;;;9.73;;
1276;SDS011;631;51.024;13.826;2023-07-31T14:20:18;11.77;;;10.97;;
1276;SDS011;631;51.024;13.826;2023-07-31T14:22:43;10.90;;;10.30;;
1276;SDS011;631;51.024;13.826;2023-07-31T14:25:09;10.60;;;10.10;;
1276;SDS011;631;51.024;13.826;2023-07-31T14:27:35;10.57;;;10.07;;
1276;SDS011;631;51.024;13.826;2023-07-31T14:30:01;11.67;;;11.17;;
1276;SDS011;631;51.024;13.826;2023-07-31T14:32:27;10.80;;;10.20;;
1276;SDS011;631;51.024;13.826;2023-07-31T14:34:53;10.37;;;9.90;;
1276;SDS011;631;51.024;13.826;2023-07-31T14:37:19;11.43;;;10.83;;
1276;SDS011;631;51.024;13.826;2023-07-31T14:39:45;10.93;;;10.43;;
1276;SDS011;631;51.024;13.826;2023-07-31T14:42:10;10.70;;;10.20;;
1276;SDS011;631;51.024;13.826;2023-07-31T14:44:36;11.27;;;10.77;;
1276;SDS011;631;51.024;13.826;2023-07-31T14:47:02;10.60;;;9.93;;
1276;SDS011;631;51.024;13.826;2023-07-31T14:49:27;11.40;;;10.80;;
1276;SDS011;631;51.024;13.826;2023-07-31T14:51:53;10.80;;;10.20;;
1276;SDS011;631;51.024;13.826;2023-07-31T14:54:19;11.07;;;10.53;;
1276;SDS011;631;51.024;13.826;2023-07-31T14:56:45;12.00;;;11.27;;
1276;SDS011;631;51.024;13.826;2023-07-31T14:59:10;11.90;;;11.20;;